sensor_id;sensor_type;location;lat;lon;timestamp;P1;durP1;ratioP1;P2;durP2;ratioP2
49824;SDS011;35714;55.708;37.478;2023-01-01T00:02:13;14.23;;;5.60;;
49824;SDS011;35714;55.708;37.478;2023-01-01T00:04:39;10.82;;;5.85;;
49824;SDS011;35714;55.708;37.478;2023-01-01T00:07:04;10.95;;;5.60;;
49824;SDS011;35714;55.708;37.478;2023-01-01T00:09:30;10.50;;;5.25;;
49824;SDS011;35714;55.708;37.478;2023-01-01T00:12:14;9.13;;;5.43;;
49824;SDS011;35714;55.708;37.478;2023-01-01T00:14:40;8.93;;;5.07;;
49824;SDS011;35714;55.708;37.478;2023-01-01T00:17:08;9.82;;;5.28;;
49824;SDS011;35714;55.708;37.478;2023-01-01T00:19:34;8.13;;;4.25;;
49824;SDS011;35714;55.708;37.478;2023-01-01T00:22:00;10.15;;;5.68;;
49824;SDS011;35714;55.708;37.478;2023-01-01T00:24:26;7.35;;;4.45;;
49824;SDS011;35714;55.708;37.478;2023-01-01T00:26:52;11.30;;;5.30;;
49824;SDS011;35714;55.708;37.478;2023-01-01T00:29:17;8.32;;;3.75;;
49824;SDS011;35714;55.708;37.478;2023-01-01T00:31:43;7.88;;;3.63;;
49824;SDS011;35714;55.708;37.478;2023-01-01T00:34:09;7.93;;;4.30;;
49824;SDS011;35714;55.708;37.478;2023-01-01T00:36:35;8.07;;;4.22;;
49824;SDS011;35714;55.708;37.478;2023-01-01T00:39:03;7.90;;;4.57;;
49824;SDS011;35714;55.708;37.478;2023-01-01T00:41:29;9.38;;;3.95;;
49824;SDS011;35714;55.708;37.478;2023-01-01T00:43:54;8.80;;;3.83;;
49824;SDS011;35714;55.708;37.478;2023-01-01T00:46:20;8.73;;;3.72;;
49824;SDS011;35714;55.708;37.478;2023-01-01T00:48:46;7.97;;;3.75;;
49824;SDS011;35714;55.708;37.478;2023-01-01T00:51:11;7.63;;;4.07;;
49824;SDS011;35714;55.708;37.478;2023-01-01T00:53:37;7.50;;;3.80;;
49824;SDS011;35714;55.708;37.478;2023-01-01T00:56:03;5.90;;;3.35;;
49824;SDS011;35714;55.708;37.478;2023-01-01T00:58:30;7.00;;;3.83;;
49824;SDS011;35714;55.708;37.478;2023-01-01T01:00:55;8.98;;;3.53;;
49824;SDS011;35714;55.708;37.478;2023-01-01T01:03:21;6.35;;;3.22;;
49824;SDS011;35714;55.708;37.478;2023-01-01T01:05:54;6.30;;;3.17;;
49824;SDS011;35714;55.708;37.478;2023-01-01T01:08:24;8.00;;;3.92;;
49824;SDS011;35714;55.708;37.478;2023-01-01T01:10:51;6.13;;;3.47;;
49824;SDS011;35714;55.708;37.478;2023-01-01T01:13:18;7.45;;;3.53;;
49824;SDS011;35714;55.708;37.478;2023-01-01T01:15:44;6.53;;;3.83;;
49824;SDS011;35714;55.708;37.478;2023-01-01T01:18:09;8.80;;;3.38;;
49824;SDS011;35714;55.708;37.478;2023-01-01T01:20:35;6.15;;;3.03;;
49824;SDS011;35714;55.708;37.478;2023-01-01T01:23:01;5.60;;;2.97;;
49824;SDS011;35714;55.708;37.478;2023-01-01T01:25:27;6.07;;;3.33;;
49824;SDS011;35714;55.708;37.478;2023-01-01T01:27:52;7.03;;;3.42;;
49824;SDS011;35714;55.708;37.478;2023-01-01T01:30:18;7.05;;;4.03;;
49824;SDS011;35714;55.708;37.478;2023-01-01T01:32:44;7.28;;;3.65;;
49824;SDS011;35714;55.708;37.478;2023-01-01T01:35:10;6.88;;;3.47;;
49824;SDS011;35714;55.708;37.478;2023-01-01T01:37:35;7.72;;;3.95;;
49824;SDS011;35714;55.708;37.478;2023-01-01T01:40:01;6.32;;;3.20;;
49824;SDS011;35714;55.708;37.478;2023-01-01T01:42:29;5.63;;;3.33;;
49824;SDS011;35714;55.708;37.478;2023-01-01T01:44:56;5.32;;;2.72;;
49824;SDS011;35714;55.708;37.478;2023-01-01T01:47:31;4.88;;;2.72;;
49824;SDS011;35714;55.708;37.478;2023-01-01T01:50:15;5.85;;;3.10;;
49824;SDS011;35714;55.708;37.478;2023-01-01T01:52:46;5.43;;;2.47;;
49824;SDS011;35714;55.708;37.478;2023-01-01T01:55:23;5.80;;;2.00;;
49824;SDS011;35714;55.708;37.478;2023-01-01T01:57:52;5.47;;;2.95;;
49824;SDS011;35714;55.708;37.478;2023-01-01T02:00:18;4.80;;;2.55;;
49824;SDS011;35714;55.708;37.478;2023-01-01T02:02:47;4.55;;;2.40;;
49824;SDS011;35714;55.708;37.478;2023-01-01T02:05:19;5.45;;;2.40;;
49824;SDS011;35714;55.708;37.478;2023-01-01T02:07:46;5.50;;;2.58;;
49824;SDS011;35714;55.708;37.478;2023-01-01T02:10:11;6.45;;;2.80;;
49824;SDS011;35714;55.708;37.478;2023-01-01T02:12:37;5.05;;;2.22;;
49824;SDS011;35714;55.708;37.478;2023-01-01T02:15:24;5.93;;;2.65;;
49824;SDS011;35714;55.708;37.478;2023-01-01T02:17:58;7.10;;;2.33;;
49824;SDS011;35714;55.708;37.478;2023-01-01T02:25:48;5.10;;;2.60;;
49824;SDS011;35714;55.708;37.478;2023-01-01T02:29:16;4.38;;;2.55;;
49824;SDS011;35714;55.708;37.478;2023-01-01T02:31:35;4.38;;;2.60;;
49824;SDS011;35714;55.708;37.478;2023-01-01T02:34:05;5.60;;;2.50;;
49824;SDS011;35714;55.708;37.478;2023-01-01T02:36:35;5.22;;;2.50;;
49824;SDS011;35714;55.708;37.478;2023-01-01T02:39:08;4.70;;;2.28;;
49824;SDS011;35714;55.708;37.478;2023-01-01T02:41:37;6.45;;;3.15;;
49824;SDS011;35714;55.708;37.478;2023-01-01T02:44:05;6.00;;;3.28;;
49824;SDS011;35714;55.708;37.478;2023-01-01T02:46:32;5.57;;;2.85;;
49824;SDS011;35714;55.708;37.478;2023-01-01T02:48:59;5.28;;;2.55;;
49824;SDS011;35714;55.708;37.478;2023-01-01T02:57:06;6.07;;;2.92;;
49824;SDS011;35714;55.708;37.478;2023-01-01T03:05:49;4.35;;;2.38;;
49824;SDS011;35714;55.708;37.478;2023-01-01T03:11:31;5.53;;;2.85;;
49824;SDS011;35714;55.708;37.478;2023-01-01T03:14:17;6.63;;;2.92;;
49824;SDS011;35714;55.708;37.478;2023-01-01T03:16:58;5.20;;;2.65;;
49824;SDS011;35714;55.708;37.478;2023-01-01T03:19:33;4.80;;;2.70;;
49824;SDS011;35714;55.708;37.478;2023-01-01T03:22:05;5.72;;;2.92;;
49824;SDS011;35714;55.708;37.478;2023-01-01T03:27:01;7.53;;;3.40;;
49824;SDS011;35714;55.708;37.478;2023-01-01T03:29:30;6.38;;;3.20;;
49824;SDS011;35714;55.708;37.478;2023-01-01T03:31:59;5.85;;;3.10;;
49824;SDS011;35714;55.708;37.478;2023-01-01T03:34:31;7.43;;;3.30;;
49824;SDS011;35714;55.708;37.478;2023-01-01T03:37:07;6.90;;;3.53;;
49824;SDS011;35714;55.708;37.478;2023-01-01T03:39:37;7.72;;;3.78;;
49824;SDS011;35714;55.708;37.478;2023-01-01T03:44:52;6.82;;;3.63;;
49824;SDS011;35714;55.708;37.478;2023-01-01T03:47:26;4.78;;;2.70;;
49824;SDS011;35714;55.708;37.478;2023-01-01T03:49:53;6.10;;;3.20;;
49824;SDS011;35714;55.708;37.478;2023-01-01T03:53:23;6.10;;;3.60;;
49824;SDS011;35714;55.708;37.478;2023-01-01T03:55:20;8.18;;;3.85;;
49824;SDS011;35714;55.708;37.478;2023-01-01T04:00:24;7.07;;;3.53;;
49824;SDS011;35714;55.708;37.478;2023-01-01T04:05:26;6.57;;;3.92;;
49824;SDS011;35714;55.708;37.478;2023-01-01T04:07:54;6.53;;;3.47;;
49824;SDS011;35714;55.708;37.478;2023-01-01T04:10:21;6.38;;;3.65;;
49824;SDS011;35714;55.708;37.478;2023-01-01T04:12:50;7.03;;;3.83;;
49824;SDS011;35714;55.708;37.478;2023-01-01T04:15:19;6.30;;;3.65;;
49824;SDS011;35714;55.708;37.478;2023-01-01T04:17:47;6.57;;;3.78;;
49824;SDS011;35714;55.708;37.478;2023-01-01T04:20:13;7.03;;;3.88;;
49824;SDS011;35714;55.708;37.478;2023-01-01T04:22:38;7.30;;;3.83;;
49824;SDS011;35714;55.708;37.478;2023-01-01T04:25:04;7.72;;;4.20;;
49824;SDS011;35714;55.708;37.478;2023-01-01T04:27:31;5.53;;;3.20;;
49824;SDS011;35714;55.708;37.478;2023-01-01T04:29:57;7.57;;;3.97;;
49824;SDS011;35714;55.708;37.478;2023-01-01T04:32:23;6.93;;;3.85;;
49824;SDS011;35714;55.708;37.478;2023-01-01T04:34:49;5.53;;;3.28;;
49824;SDS011;35714;55.708;37.478;2023-01-01T04:37:15;7.82;;;4.00;;
49824;SDS011;35714;55.708;37.478;2023-01-01T04:39:41;6.72;;;3.88;;
49824;SDS011;35714;55.708;37.478;2023-01-01T04:42:07;6.07;;;3.75;;
49824;SDS011;35714;55.708;37.478;2023-01-01T04:44:33;5.85;;;3.28;;
49824;SDS011;35714;55.708;37.478;2023-01-01T04:46:59;6.88;;;3.75;;
49824;SDS011;35714;55.708;37.478;2023-01-01T04:49:25;7.03;;;3.50;;
49824;SDS011;35714;55.708;37.478;2023-01-01T04:51:50;7.15;;;3.75;;
49824;SDS011;35714;55.708;37.478;2023-01-01T04:54:16;5.80;;;3.40;;
49824;SDS011;35714;55.708;37.478;2023-01-01T04:56:42;5.70;;;3.80;;
49824;SDS011;35714;55.708;37.478;2023-01-01T04:59:07;6.45;;;3.25;;
49824;SDS011;35714;55.708;37.478;2023-01-01T05:01:33;6.68;;;3.60;;
49824;SDS011;35714;55.708;37.478;2023-01-01T05:03:59;5.68;;;3.20;;
49824;SDS011;35714;55.708;37.478;2023-01-01T05:06:26;5.93;;;3.35;;
49824;SDS011;35714;55.708;37.478;2023-01-01T05:08:53;5.50;;;3.08;;
49824;SDS011;35714;55.708;37.478;2023-01-01T05:11:21;6.75;;;3.22;;
49824;SDS011;35714;55.708;37.478;2023-01-01T05:13:52;7.25;;;3.35;;
49824;SDS011;35714;55.708;37.478;2023-01-01T05:16:20;5.78;;;3.42;;
49824;SDS011;35714;55.708;37.478;2023-01-01T05:18:57;5.25;;;2.90;;
49824;SDS011;35714;55.708;37.478;2023-01-01T05:21:24;5.85;;;3.70;;
49824;SDS011;35714;55.708;37.478;2023-01-01T05:23:57;6.30;;;3.92;;
49824;SDS011;35714;55.708;37.478;2023-01-01T05:26:25;5.93;;;3.40;;
49824;SDS011;35714;55.708;37.478;2023-01-01T05:28:53;5.80;;;2.92;;
49824;SDS011;35714;55.708;37.478;2023-01-01T05:31:22;5.28;;;2.72;;
49824;SDS011;35714;55.708;37.478;2023-01-01T05:33:51;5.80;;;3.60;;
49824;SDS011;35714;55.708;37.478;2023-01-01T05:36:19;6.18;;;3.25;;
49824;SDS011;35714;55.708;37.478;2023-01-01T05:38:49;5.20;;;3.28;;
49824;SDS011;35714;55.708;37.478;2023-01-01T05:41:16;5.88;;;3.58;;
49824;SDS011;35714;55.708;37.478;2023-01-01T05:43:43;5.78;;;3.28;;
49824;SDS011;35714;55.708;37.478;2023-01-01T05:46:13;6.05;;;3.40;;
49824;SDS011;35714;55.708;37.478;2023-01-01T05:48:41;5.45;;;3.10;;
49824;SDS011;35714;55.708;37.478;2023-01-01T05:51:08;5.38;;;3.00;;
49824;SDS011;35714;55.708;37.478;2023-01-01T05:53:36;6.35;;;3.70;;
49824;SDS011;35714;55.708;37.478;2023-01-01T05:56:02;4.72;;;2.90;;
49824;SDS011;35714;55.708;37.478;2023-01-01T05:58:29;5.35;;;2.92;;
49824;SDS011;35714;55.708;37.478;2023-01-01T06:01:04;5.18;;;2.92;;
49824;SDS011;35714;55.708;37.478;2023-01-01T06:03:34;5.80;;;3.30;;
49824;SDS011;35714;55.708;37.478;2023-01-01T06:06:04;5.13;;;2.78;;
49824;SDS011;35714;55.708;37.478;2023-01-01T06:08:31;5.25;;;3.25;;
49824;SDS011;35714;55.708;37.478;2023-01-01T06:10:58;6.15;;;3.00;;
49824;SDS011;35714;55.708;37.478;2023-01-01T06:13:25;5.53;;;3.15;;
49824;SDS011;35714;55.708;37.478;2023-01-01T06:15:54;4.80;;;3.03;;
49824;SDS011;35714;55.708;37.478;2023-01-01T06:18:21;5.90;;;3.38;;
49824;SDS011;35714;55.708;37.478;2023-01-01T06:20:48;5.38;;;2.40;;
49824;SDS011;35714;55.708;37.478;2023-01-01T06:23:13;4.68;;;2.20;;
49824;SDS011;35714;55.708;37.478;2023-01-01T06:25:39;4.35;;;2.22;;
49824;SDS011;35714;55.708;37.478;2023-01-01T06:28:05;6.03;;;3.00;;
49824;SDS011;35714;55.708;37.478;2023-01-01T06:30:31;5.40;;;2.70;;
49824;SDS011;35714;55.708;37.478;2023-01-01T06:33:01;4.60;;;2.38;;
49824;SDS011;35714;55.708;37.478;2023-01-01T06:35:28;4.88;;;2.40;;
49824;SDS011;35714;55.708;37.478;2023-01-01T06:37:53;4.40;;;2.22;;
49824;SDS011;35714;55.708;37.478;2023-01-01T06:40:19;4.40;;;2.45;;
49824;SDS011;35714;55.708;37.478;2023-01-01T06:42:45;5.00;;;2.97;;
49824;SDS011;35714;55.708;37.478;2023-01-01T06:45:11;3.90;;;2.30;;
49824;SDS011;35714;55.708;37.478;2023-01-01T06:47:37;4.40;;;2.05;;
49824;SDS011;35714;55.708;37.478;2023-01-01T06:50:05;4.20;;;2.30;;
49824;SDS011;35714;55.708;37.478;2023-01-01T06:52:31;3.70;;;2.00;;
49824;SDS011;35714;55.708;37.478;2023-01-01T06:54:56;4.10;;;2.50;;
49824;SDS011;35714;55.708;37.478;2023-01-01T06:57:22;5.05;;;2.25;;
49824;SDS011;35714;55.708;37.478;2023-01-01T06:59:49;4.15;;;2.08;;
49824;SDS011;35714;55.708;37.478;2023-01-01T07:02:15;4.53;;;2.38;;
49824;SDS011;35714;55.708;37.478;2023-01-01T07:04:40;4.60;;;2.25;;
49824;SDS011;35714;55.708;37.478;2023-01-01T07:07:06;4.57;;;2.38;;
49824;SDS011;35714;55.708;37.478;2023-01-01T07:09:32;4.40;;;2.00;;
49824;SDS011;35714;55.708;37.478;2023-01-01T07:11:58;4.88;;;2.47;;
49824;SDS011;35714;55.708;37.478;2023-01-01T07:14:23;3.90;;;2.20;;
49824;SDS011;35714;55.708;37.478;2023-01-01T07:16:49;4.00;;;2.25;;
49824;SDS011;35714;55.708;37.478;2023-01-01T07:19:15;6.40;;;2.70;;
49824;SDS011;35714;55.708;37.478;2023-01-01T07:24:09;4.63;;;2.22;;
49824;SDS011;35714;55.708;37.478;2023-01-01T07:26:36;5.10;;;2.35;;
49824;SDS011;35714;55.708;37.478;2023-01-01T07:29:02;4.68;;;2.28;;
49824;SDS011;35714;55.708;37.478;2023-01-01T07:31:28;5.10;;;2.20;;
49824;SDS011;35714;55.708;37.478;2023-01-01T07:33:54;4.55;;;2.28;;
49824;SDS011;35714;55.708;37.478;2023-01-01T07:36:19;4.40;;;2.03;;
49824;SDS011;35714;55.708;37.478;2023-01-01T07:38:45;4.13;;;2.25;;
49824;SDS011;35714;55.708;37.478;2023-01-01T07:41:11;6.68;;;2.70;;
49824;SDS011;35714;55.708;37.478;2023-01-01T07:43:37;4.28;;;2.05;;
49824;SDS011;35714;55.708;37.478;2023-01-01T07:46:02;5.82;;;2.35;;
49824;SDS011;35714;55.708;37.478;2023-01-01T07:48:28;5.18;;;2.38;;
49824;SDS011;35714;55.708;37.478;2023-01-01T07:50:55;5.28;;;2.13;;
49824;SDS011;35714;55.708;37.478;2023-01-01T07:53:20;4.88;;;2.10;;
49824;SDS011;35714;55.708;37.478;2023-01-01T07:55:46;4.70;;;2.10;;
49824;SDS011;35714;55.708;37.478;2023-01-01T07:58:12;4.00;;;2.15;;
49824;SDS011;35714;55.708;37.478;2023-01-01T08:00:38;3.85;;;1.92;;
49824;SDS011;35714;55.708;37.478;2023-01-01T08:03:04;5.50;;;2.47;;
49824;SDS011;35714;55.708;37.478;2023-01-01T08:05:31;4.18;;;2.30;;
49824;SDS011;35714;55.708;37.478;2023-01-01T08:07:58;3.83;;;1.77;;
49824;SDS011;35714;55.708;37.478;2023-01-01T08:10:24;4.63;;;2.30;;
49824;SDS011;35714;55.708;37.478;2023-01-01T08:12:49;6.78;;;2.47;;
49824;SDS011;35714;55.708;37.478;2023-01-01T08:15:15;6.35;;;2.00;;
49824;SDS011;35714;55.708;37.478;2023-01-01T08:17:41;5.40;;;2.42;;
49824;SDS011;35714;55.708;37.478;2023-01-01T08:20:07;4.43;;;2.28;;
49824;SDS011;35714;55.708;37.478;2023-01-01T08:22:33;4.20;;;2.30;;
49824;SDS011;35714;55.708;37.478;2023-01-01T08:24:59;5.70;;;2.15;;
49824;SDS011;35714;55.708;37.478;2023-01-01T08:27:25;4.53;;;2.15;;
49824;SDS011;35714;55.708;37.478;2023-01-01T08:29:51;5.03;;;2.72;;
49824;SDS011;35714;55.708;37.478;2023-01-01T08:32:16;3.95;;;1.98;;
49824;SDS011;35714;55.708;37.478;2023-01-01T08:34:42;6.82;;;2.25;;
49824;SDS011;35714;55.708;37.478;2023-01-01T08:37:11;4.80;;;2.40;;
49824;SDS011;35714;55.708;37.478;2023-01-01T08:39:38;5.03;;;2.90;;
49824;SDS011;35714;55.708;37.478;2023-01-01T08:42:04;4.40;;;2.13;;
49824;SDS011;35714;55.708;37.478;2023-01-01T08:44:29;5.05;;;2.58;;
49824;SDS011;35714;55.708;37.478;2023-01-01T08:46:55;5.85;;;2.72;;
49824;SDS011;35714;55.708;37.478;2023-01-01T08:49:21;5.25;;;2.45;;
49824;SDS011;35714;55.708;37.478;2023-01-01T08:51:46;4.38;;;2.28;;
49824;SDS011;35714;55.708;37.478;2023-01-01T08:54:12;5.40;;;2.90;;
49824;SDS011;35714;55.708;37.478;2023-01-01T08:56:38;6.50;;;3.35;;
49824;SDS011;35714;55.708;37.478;2023-01-01T08:59:03;5.63;;;3.10;;
49824;SDS011;35714;55.708;37.478;2023-01-01T09:01:29;5.78;;;3.35;;
49824;SDS011;35714;55.708;37.478;2023-01-01T09:03:55;3.78;;;1.98;;
49824;SDS011;35714;55.708;37.478;2023-01-01T09:06:21;6.03;;;3.22;;
49824;SDS011;35714;55.708;37.478;2023-01-01T09:08:46;5.00;;;2.63;;
49824;SDS011;35714;55.708;37.478;2023-01-01T09:11:48;6.53;;;3.20;;
49824;SDS011;35714;55.708;37.478;2023-01-01T09:14:04;5.85;;;3.17;;
49824;SDS011;35714;55.708;37.478;2023-01-01T09:16:30;6.10;;;3.58;;
49824;SDS011;35714;55.708;37.478;2023-01-01T09:18:55;6.05;;;3.42;;
49824;SDS011;35714;55.708;37.478;2023-01-01T09:21:21;6.25;;;3.38;;
49824;SDS011;35714;55.708;37.478;2023-01-01T09:23:47;7.10;;;3.67;;
49824;SDS011;35714;55.708;37.478;2023-01-01T09:26:12;7.60;;;3.75;;
49824;SDS011;35714;55.708;37.478;2023-01-01T09:28:38;6.95;;;3.92;;
49824;SDS011;35714;55.708;37.478;2023-01-01T09:31:04;6.28;;;3.28;;
49824;SDS011;35714;55.708;37.478;2023-01-01T09:33:33;6.93;;;3.97;;
49824;SDS011;35714;55.708;37.478;2023-01-01T09:36:12;6.57;;;3.38;;
49824;SDS011;35714;55.708;37.478;2023-01-01T09:38:39;6.72;;;3.60;;
49824;SDS011;35714;55.708;37.478;2023-01-01T09:41:11;7.55;;;4.00;;
49824;SDS011;35714;55.708;37.478;2023-01-01T09:46:44;6.32;;;3.83;;
49824;SDS011;35714;55.708;37.478;2023-01-01T09:49:12;7.63;;;3.63;;
49824;SDS011;35714;55.708;37.478;2023-01-01T09:51:58;5.57;;;3.15;;
49824;SDS011;35714;55.708;37.478;2023-01-01T09:54:27;5.82;;;3.50;;
49824;SDS011;35714;55.708;37.478;2023-01-01T09:56:58;5.78;;;2.90;;
49824;SDS011;35714;55.708;37.478;2023-01-01T09:59:26;5.93;;;3.17;;
49824;SDS011;35714;55.708;37.478;2023-01-01T10:07:30;5.72;;;2.92;;
49824;SDS011;35714;55.708;37.478;2023-01-01T10:15:17;5.32;;;2.95;;
49824;SDS011;35714;55.708;37.478;2023-01-01T10:17:52;5.85;;;2.80;;
49824;SDS011;35714;55.708;37.478;2023-01-01T10:20:24;6.15;;;3.33;;
49824;SDS011;35714;55.708;37.478;2023-01-01T10:23:06;5.75;;;3.30;;
49824;SDS011;35714;55.708;37.478;2023-01-01T10:25:46;5.15;;;3.15;;
49824;SDS011;35714;55.708;37.478;2023-01-01T10:30:47;5.70;;;2.73;;
49824;SDS011;35714;55.708;37.478;2023-01-01T10:33:16;4.93;;;2.80;;
49824;SDS011;35714;55.708;37.478;2023-01-01T10:35:43;5.13;;;2.90;;
49824;SDS011;35714;55.708;37.478;2023-01-01T10:38:20;6.15;;;3.25;;
49824;SDS011;35714;55.708;37.478;2023-01-01T10:40:48;5.70;;;3.00;;
49824;SDS011;35714;55.708;37.478;2023-01-01T10:43:15;6.03;;;2.72;;
49824;SDS011;35714;55.708;37.478;2023-01-01T10:45:42;6.43;;;2.90;;
49824;SDS011;35714;55.708;37.478;2023-01-01T10:48:18;5.45;;;2.60;;
49824;SDS011;35714;55.708;37.478;2023-01-01T10:50:49;5.40;;;2.90;;
49824;SDS011;35714;55.708;37.478;2023-01-01T10:58:25;6.30;;;3.00;;
49824;SDS011;35714;55.708;37.478;2023-01-01T11:00:58;5.63;;;2.95;;
49824;SDS011;35714;55.708;37.478;2023-01-01T11:03:26;4.88;;;2.60;;
49824;SDS011;35714;55.708;37.478;2023-01-01T11:06:02;5.60;;;2.75;;
49824;SDS011;35714;55.708;37.478;2023-01-01T11:08:38;5.88;;;2.83;;
49824;SDS011;35714;55.708;37.478;2023-01-01T11:11:17;7.18;;;3.20;;
49824;SDS011;35714;55.708;37.478;2023-01-01T11:13:51;4.72;;;2.47;;
49824;SDS011;35714;55.708;37.478;2023-01-01T11:16:19;6.47;;;3.50;;
49824;SDS011;35714;55.708;37.478;2023-01-01T11:18:45;5.15;;;2.58;;
49824;SDS011;35714;55.708;37.478;2023-01-01T11:21:17;4.60;;;2.63;;
49824;SDS011;35714;55.708;37.478;2023-01-01T11:23:46;5.93;;;3.15;;
49824;SDS011;35714;55.708;37.478;2023-01-01T11:28:40;6.15;;;2.47;;
49824;SDS011;35714;55.708;37.478;2023-01-01T11:33:53;8.85;;;3.13;;
49824;SDS011;35714;55.708;37.478;2023-01-01T11:36:21;5.30;;;2.40;;
49824;SDS011;35714;55.708;37.478;2023-01-01T11:38:48;5.15;;;2.50;;
49824;SDS011;35714;55.708;37.478;2023-01-01T11:41:28;5.07;;;2.53;;
49824;SDS011;35714;55.708;37.478;2023-01-01T11:44:05;4.80;;;2.55;;
49824;SDS011;35714;55.708;37.478;2023-01-01T11:46:34;6.38;;;3.20;;
49824;SDS011;35714;55.708;37.478;2023-01-01T11:49:02;5.78;;;2.60;;
49824;SDS011;35714;55.708;37.478;2023-01-01T11:51:31;6.97;;;2.80;;
49824;SDS011;35714;55.708;37.478;2023-01-01T11:54:08;4.28;;;2.45;;
49824;SDS011;35714;55.708;37.478;2023-01-01T11:56:36;4.07;;;2.22;;
49824;SDS011;35714;55.708;37.478;2023-01-01T11:59:05;6.20;;;3.00;;
49824;SDS011;35714;55.708;37.478;2023-01-01T12:01:47;6.57;;;2.95;;
49824;SDS011;35714;55.708;37.478;2023-01-01T12:04:24;5.25;;;2.90;;
49824;SDS011;35714;55.708;37.478;2023-01-01T12:07:05;6.22;;;2.72;;
49824;SDS011;35714;55.708;37.478;2023-01-01T12:09:41;4.45;;;2.20;;
49824;SDS011;35714;55.708;37.478;2023-01-01T12:12:25;5.82;;;2.30;;
49824;SDS011;35714;55.708;37.478;2023-01-01T12:15:01;3.95;;;1.70;;
49824;SDS011;35714;55.708;37.478;2023-01-01T12:17:41;5.82;;;2.50;;
49824;SDS011;35714;55.708;37.478;2023-01-01T12:20:13;4.90;;;2.35;;
49824;SDS011;35714;55.708;37.478;2023-01-01T12:22:46;5.55;;;2.47;;
49824;SDS011;35714;55.708;37.478;2023-01-01T12:25:13;4.45;;;2.47;;
49824;SDS011;35714;55.708;37.478;2023-01-01T12:30:21;3.58;;;1.80;;
49824;SDS011;35714;55.708;37.478;2023-01-01T12:44:00;4.70;;;2.55;;
49824;SDS011;35714;55.708;37.478;2023-01-01T12:51:43;5.30;;;2.60;;
49824;SDS011;35714;55.708;37.478;2023-01-01T12:57:12;5.10;;;2.63;;
49824;SDS011;35714;55.708;37.478;2023-01-01T12:59:45;4.57;;;2.50;;
49824;SDS011;35714;55.708;37.478;2023-01-01T13:02:23;5.22;;;2.28;;
49824;SDS011;35714;55.708;37.478;2023-01-01T13:04:55;4.63;;;2.30;;
49824;SDS011;35714;55.708;37.478;2023-01-01T13:07:27;7.45;;;2.10;;
49824;SDS011;35714;55.708;37.478;2023-01-01T13:10:00;4.22;;;2.03;;
49824;SDS011;35714;55.708;37.478;2023-01-01T13:12:33;3.17;;;1.75;;
49824;SDS011;35714;55.708;37.478;2023-01-01T13:18:01;4.20;;;2.60;;
49824;SDS011;35714;55.708;37.478;2023-01-01T13:20:55;4.65;;;2.33;;
49824;SDS011;35714;55.708;37.478;2023-01-01T13:28:43;4.03;;;2.00;;
49824;SDS011;35714;55.708;37.478;2023-01-01T13:39:57;3.25;;;1.70;;
49824;SDS011;35714;55.708;37.478;2023-01-01T13:45:24;3.97;;;1.90;;
49824;SDS011;35714;55.708;37.478;2023-01-01T13:53:02;3.70;;;1.52;;
49824;SDS011;35714;55.708;37.478;2023-01-01T13:55:55;4.47;;;1.75;;
49824;SDS011;35714;55.708;37.478;2023-01-01T14:03:54;4.28;;;2.08;;
49824;SDS011;35714;55.708;37.478;2023-01-01T14:09:10;3.95;;;1.63;;
49824;SDS011;35714;55.708;37.478;2023-01-01T14:11:38;4.75;;;2.60;;
49824;SDS011;35714;55.708;37.478;2023-01-01T14:14:18;5.43;;;2.58;;
49824;SDS011;35714;55.708;37.478;2023-01-01T14:16:49;4.25;;;1.90;;
49824;SDS011;35714;55.708;37.478;2023-01-01T14:19:16;4.53;;;2.30;;
49824;SDS011;35714;55.708;37.478;2023-01-01T14:21:42;4.30;;;2.28;;
49824;SDS011;35714;55.708;37.478;2023-01-01T14:24:09;4.00;;;1.95;;
49824;SDS011;35714;55.708;37.478;2023-01-01T14:26:41;4.32;;;2.15;;
49824;SDS011;35714;55.708;37.478;2023-01-01T14:29:08;3.75;;;1.65;;
49824;SDS011;35714;55.708;37.478;2023-01-01T14:31:40;3.55;;;1.90;;
49824;SDS011;35714;55.708;37.478;2023-01-01T14:34:12;5.50;;;1.95;;
49824;SDS011;35714;55.708;37.478;2023-01-01T14:36:52;5.07;;;2.05;;
49824;SDS011;35714;55.708;37.478;2023-01-01T14:39:21;3.88;;;2.00;;
49824;SDS011;35714;55.708;37.478;2023-01-01T14:41:52;4.55;;;1.90;;
49824;SDS011;35714;55.708;37.478;2023-01-01T14:44:20;3.00;;;1.75;;
49824;SDS011;35714;55.708;37.478;2023-01-01T14:46:58;5.57;;;1.90;;
49824;SDS011;35714;55.708;37.478;2023-01-01T14:49:28;4.85;;;1.88;;
49824;SDS011;35714;55.708;37.478;2023-01-01T14:52:00;4.05;;;2.20;;
49824;SDS011;35714;55.708;37.478;2023-01-01T14:54:31;5.43;;;2.15;;
49824;SDS011;35714;55.708;37.478;2023-01-01T14:57:00;4.45;;;2.45;;
49824;SDS011;35714;55.708;37.478;2023-01-01T14:59:29;4.07;;;2.10;;
49824;SDS011;35714;55.708;37.478;2023-01-01T15:04:37;3.47;;;1.48;;
49824;SDS011;35714;55.708;37.478;2023-01-01T15:07:04;5.38;;;2.22;;
49824;SDS011;35714;55.708;37.478;2023-01-01T15:09:30;3.45;;;1.75;;
49824;SDS011;35714;55.708;37.478;2023-01-01T15:11:57;5.00;;;2.03;;
49824;SDS011;35714;55.708;37.478;2023-01-01T15:14:28;4.63;;;2.30;;
49824;SDS011;35714;55.708;37.478;2023-01-01T15:19:40;6.68;;;2.28;;
49824;SDS011;35714;55.708;37.478;2023-01-01T15:22:10;4.90;;;2.47;;
49824;SDS011;35714;55.708;37.478;2023-01-01T15:25:09;5.53;;;2.70;;
49824;SDS011;35714;55.708;37.478;2023-01-01T15:27:38;6.68;;;3.47;;
49824;SDS011;35714;55.708;37.478;2023-01-01T15:30:04;5.40;;;3.03;;
49824;SDS011;35714;55.708;37.478;2023-01-01T15:32:32;7.53;;;3.00;;
49824;SDS011;35714;55.708;37.478;2023-01-01T15:35:16;6.45;;;3.33;;
49824;SDS011;35714;55.708;37.478;2023-01-01T15:37:51;5.50;;;3.00;;
49824;SDS011;35714;55.708;37.478;2023-01-01T15:45:35;5.53;;;2.97;;
49824;SDS011;35714;55.708;37.478;2023-01-01T15:53:07;5.07;;;2.67;;
49824;SDS011;35714;55.708;37.478;2023-01-01T15:55:43;5.35;;;3.00;;
49824;SDS011;35714;55.708;37.478;2023-01-01T15:58:31;6.18;;;3.30;;
49824;SDS011;35714;55.708;37.478;2023-01-01T16:01:13;6.85;;;3.10;;
49824;SDS011;35714;55.708;37.478;2023-01-01T16:03:43;6.13;;;3.50;;
49824;SDS011;35714;55.708;37.478;2023-01-01T16:06:15;5.32;;;3.10;;
49824;SDS011;35714;55.708;37.478;2023-01-01T16:08:42;6.55;;;3.42;;
49824;SDS011;35714;55.708;37.478;2023-01-01T16:11:08;6.45;;;4.20;;
49824;SDS011;35714;55.708;37.478;2023-01-01T16:13:33;4.90;;;3.17;;
49824;SDS011;35714;55.708;37.478;2023-01-01T16:16:00;6.07;;;3.45;;
49824;SDS011;35714;55.708;37.478;2023-01-01T16:18:31;5.70;;;3.42;;
49824;SDS011;35714;55.708;37.478;2023-01-01T16:20:58;5.65;;;3.05;;
49824;SDS011;35714;55.708;37.478;2023-01-01T16:23:25;7.03;;;3.10;;
49824;SDS011;35714;55.708;37.478;2023-01-01T16:25:51;6.72;;;3.55;;
49824;SDS011;35714;55.708;37.478;2023-01-01T16:28:17;6.93;;;3.75;;
49824;SDS011;35714;55.708;37.478;2023-01-01T16:30:43;5.80;;;3.28;;
49824;SDS011;35714;55.708;37.478;2023-01-01T16:33:15;5.40;;;3.13;;
49824;SDS011;35714;55.708;37.478;2023-01-01T16:35:42;5.68;;;3.17;;
49824;SDS011;35714;55.708;37.478;2023-01-01T16:38:09;5.38;;;2.85;;
49824;SDS011;35714;55.708;37.478;2023-01-01T16:40:34;6.55;;;2.78;;
49824;SDS011;35714;55.708;37.478;2023-01-01T16:43:01;4.72;;;2.50;;
49824;SDS011;35714;55.708;37.478;2023-01-01T16:45:26;7.75;;;2.92;;
49824;SDS011;35714;55.708;37.478;2023-01-01T16:47:52;5.30;;;2.90;;
49824;SDS011;35714;55.708;37.478;2023-01-01T16:50:20;5.32;;;2.97;;
49824;SDS011;35714;55.708;37.478;2023-01-01T16:52:45;5.22;;;3.10;;
49824;SDS011;35714;55.708;37.478;2023-01-01T16:55:12;5.07;;;3.08;;
49824;SDS011;35714;55.708;37.478;2023-01-01T16:57:38;5.53;;;2.92;;